LFSG/EPL METAR and TAF weather

Enter ICAO airport designator
Station Type Date Time Source
LFSG METAR 2019/06/19 06:30 UTC NOAA

LFSG 190630Z AUTO 19011KT 9999 ///TCU 21/10 Q1011


Station Type Date Time Source
LFSG Decoded METAR 2019/06/19 06:30 UTC NOAA

Station name not available
Jun 19, 2019 - 02:30 AM EDT / 2019.06.19 0630 UTC
Wind: from the S (190 degrees) at 13 MPH (11 KT):0
Visibility: greater than 7 mile(s):0
Weather: Towering cumulus clouds observed
Temperature: 69 F (21 C)
Dew Point: 50 F (10 C)
Relative Humidity: 49%
Pressure (altimeter): 29.85 in. Hg (1011 hPa)
ob: LFSG 190630Z AUTO 19011KT 9999 ///TCU 21/10 Q1011
cycle: 6

Station Type Date Time Source
LFSG TAF UTC NOAA

Error!

Example: see airport list